sensor_id;sensor_type;location;lat;lon;timestamp;P1;durP1;ratioP1;P2;durP2;ratioP2
81996;SDS011;71500;50.806;8.774;2024-02-21T00:01:15;5.10;;;3.40;;
81996;SDS011;71500;50.806;8.774;2024-02-21T00:03:47;6.80;;;3.40;;
81996;SDS011;71500;50.806;8.774;2024-02-21T00:06:18;5.90;;;3.00;;
81996;SDS011;71500;50.806;8.774;2024-02-21T00:08:49;7.40;;;3.80;;
81996;SDS011;71500;50.806;8.774;2024-02-21T00:11:21;10.10;;;4.30;;
81996;SDS011;71500;50.806;8.774;2024-02-21T00:13:52;9.50;;;3.30;;
81996;SDS011;71500;50.806;8.774;2024-02-21T00:16:24;5.90;;;3.90;;
81996;SDS011;71500;50.806;8.774;2024-02-21T00:18:55;7.80;;;3.70;;
81996;SDS011;71500;50.806;8.774;2024-02-21T00:21:28;7.50;;;3.70;;
81996;SDS011;71500;50.806;8.774;2024-02-21T00:23:59;8.10;;;4.00;;
81996;SDS011;71500;50.806;8.774;2024-02-21T00:26:31;8.80;;;4.00;;
81996;SDS011;71500;50.806;8.774;2024-02-21T00:29:02;7.60;;;4.10;;
81996;SDS011;71500;50.806;8.774;2024-02-21T00:31:36;8.80;;;4.60;;
81996;SDS011;71500;50.806;8.774;2024-02-21T00:34:08;9.30;;;4.30;;
81996;SDS011;71500;50.806;8.774;2024-02-21T00:36:40;7.00;;;3.80;;
81996;SDS011;71500;50.806;8.774;2024-02-21T00:39:11;7.40;;;4.00;;
81996;SDS011;71500;50.806;8.774;2024-02-21T00:41:42;8.10;;;4.00;;
81996;SDS011;71500;50.806;8.774;2024-02-21T00:44:13;7.60;;;3.90;;
81996;SDS011;71500;50.806;8.774;2024-02-21T00:46:45;10.20;;;4.80;;
81996;SDS011;71500;50.806;8.774;2024-02-21T00:49:17;9.60;;;4.00;;
81996;SDS011;71500;50.806;8.774;2024-02-21T00:51:48;7.10;;;4.40;;
81996;SDS011;71500;50.806;8.774;2024-02-21T00:54:19;9.10;;;3.90;;
81996;SDS011;71500;50.806;8.774;2024-02-21T00:56:51;8.40;;;4.90;;
81996;SDS011;71500;50.806;8.774;2024-02-21T00:59:22;8.70;;;3.50;;
81996;SDS011;71500;50.806;8.774;2024-02-21T01:01:54;7.80;;;4.30;;
81996;SDS011;71500;50.806;8.774;2024-02-21T01:04:25;7.90;;;4.00;;
81996;SDS011;71500;50.806;8.774;2024-02-21T01:06:56;7.70;;;3.90;;
81996;SDS011;71500;50.806;8.774;2024-02-21T01:09:28;10.20;;;3.80;;
81996;SDS011;71500;50.806;8.774;2024-02-21T01:11:59;6.60;;;3.30;;
81996;SDS011;71500;50.806;8.774;2024-02-21T01:14:30;6.80;;;4.00;;
81996;SDS011;71500;50.806;8.774;2024-02-21T01:17:02;9.10;;;3.90;;
81996;SDS011;71500;50.806;8.774;2024-02-21T01:19:34;7.70;;;3.60;;
81996;SDS011;71500;50.806;8.774;2024-02-21T01:22:06;8.30;;;4.30;;
81996;SDS011;71500;50.806;8.774;2024-02-21T01:24:38;8.20;;;4.10;;
81996;SDS011;71500;50.806;8.774;2024-02-21T01:27:10;9.50;;;4.30;;
81996;SDS011;71500;50.806;8.774;2024-02-21T01:29:41;7.50;;;4.00;;
81996;SDS011;71500;50.806;8.774;2024-02-21T01:32:12;8.60;;;4.60;;
81996;SDS011;71500;50.806;8.774;2024-02-21T01:34:43;11.40;;;5.20;;
81996;SDS011;71500;50.806;8.774;2024-02-21T01:37:15;11.20;;;5.10;;
81996;SDS011;71500;50.806;8.774;2024-02-21T01:39:46;9.50;;;4.70;;
81996;SDS011;71500;50.806;8.774;2024-02-21T01:42:19;6.10;;;4.00;;
81996;SDS011;71500;50.806;8.774;2024-02-21T01:44:50;8.50;;;4.00;;
81996;SDS011;71500;50.806;8.774;2024-02-21T01:47:22;9.20;;;3.90;;
81996;SDS011;71500;50.806;8.774;2024-02-21T01:49:53;8.80;;;4.50;;
81996;SDS011;71500;50.806;8.774;2024-02-21T01:52:25;10.10;;;4.80;;
81996;SDS011;71500;50.806;8.774;2024-02-21T01:54:56;8.60;;;4.60;;
81996;SDS011;71500;50.806;8.774;2024-02-21T01:57:28;9.70;;;4.40;;
81996;SDS011;71500;50.806;8.774;2024-02-21T01:59:59;8.20;;;4.30;;
81996;SDS011;71500;50.806;8.774;2024-02-21T02:02:31;8.30;;;4.40;;
81996;SDS011;71500;50.806;8.774;2024-02-21T02:05:02;11.40;;;5.30;;
81996;SDS011;71500;50.806;8.774;2024-02-21T02:07:37;9.50;;;4.60;;
81996;SDS011;71500;50.806;8.774;2024-02-21T02:10:08;8.50;;;4.70;;
81996;SDS011;71500;50.806;8.774;2024-02-21T02:12:40;10.90;;;5.20;;
81996;SDS011;71500;50.806;8.774;2024-02-21T02:15:11;9.20;;;5.40;;
81996;SDS011;71500;50.806;8.774;2024-02-21T02:17:43;11.30;;;5.50;;
81996;SDS011;71500;50.806;8.774;2024-02-21T02:20:15;12.00;;;5.80;;
81996;SDS011;71500;50.806;8.774;2024-02-21T02:22:46;7.30;;;4.70;;
81996;SDS011;71500;50.806;8.774;2024-02-21T02:25:18;10.00;;;4.20;;
81996;SDS011;71500;50.806;8.774;2024-02-21T02:27:50;9.80;;;4.90;;
81996;SDS011;71500;50.806;8.774;2024-02-21T02:30:21;10.40;;;4.60;;
81996;SDS011;71500;50.806;8.774;2024-02-21T02:32:56;10.80;;;5.40;;
81996;SDS011;71500;50.806;8.774;2024-02-21T02:35:27;10.00;;;4.60;;
81996;SDS011;71500;50.806;8.774;2024-02-21T02:37:59;9.20;;;5.00;;
81996;SDS011;71500;50.806;8.774;2024-02-21T02:40:30;7.90;;;4.40;;
81996;SDS011;71500;50.806;8.774;2024-02-21T02:43:03;8.30;;;4.40;;
81996;SDS011;71500;50.806;8.774;2024-02-21T02:45:35;9.90;;;4.60;;
81996;SDS011;71500;50.806;8.774;2024-02-21T02:48:07;7.80;;;4.50;;
81996;SDS011;71500;50.806;8.774;2024-02-21T02:50:39;9.60;;;4.40;;
81996;SDS011;71500;50.806;8.774;2024-02-21T02:53:10;11.90;;;5.10;;
81996;SDS011;71500;50.806;8.774;2024-02-21T02:55:41;8.50;;;4.10;;
81996;SDS011;71500;50.806;8.774;2024-02-21T02:58:13;11.30;;;5.50;;
81996;SDS011;71500;50.806;8.774;2024-02-21T03:00:44;11.10;;;5.10;;
81996;SDS011;71500;50.806;8.774;2024-02-21T03:03:16;10.70;;;4.90;;
81996;SDS011;71500;50.806;8.774;2024-02-21T03:05:47;9.90;;;4.30;;
81996;SDS011;71500;50.806;8.774;2024-02-21T03:08:18;11.10;;;4.60;;
81996;SDS011;71500;50.806;8.774;2024-02-21T03:13:21;8.80;;;4.50;;
81996;SDS011;71500;50.806;8.774;2024-02-21T03:15:53;8.00;;;3.90;;
81996;SDS011;71500;50.806;8.774;2024-02-21T03:18:25;7.50;;;3.90;;
81996;SDS011;71500;50.806;8.774;2024-02-21T03:20:57;9.30;;;4.20;;
81996;SDS011;71500;50.806;8.774;2024-02-21T03:23:28;7.90;;;5.60;;
81996;SDS011;71500;50.806;8.774;2024-02-21T03:25:59;9.80;;;5.10;;
81996;SDS011;71500;50.806;8.774;2024-02-21T03:28:31;8.00;;;4.60;;
81996;SDS011;71500;50.806;8.774;2024-02-21T03:31:03;8.60;;;4.20;;
81996;SDS011;71500;50.806;8.774;2024-02-21T03:33:34;9.50;;;4.80;;
81996;SDS011;71500;50.806;8.774;2024-02-21T03:36:07;9.00;;;4.30;;
81996;SDS011;71500;50.806;8.774;2024-02-21T03:38:44;7.30;;;4.80;;
81996;SDS011;71500;50.806;8.774;2024-02-21T03:41:16;9.30;;;4.90;;
81996;SDS011;71500;50.806;8.774;2024-02-21T03:43:50;8.60;;;3.60;;
81996;SDS011;71500;50.806;8.774;2024-02-21T03:46:23;7.50;;;4.30;;
81996;SDS011;71500;50.806;8.774;2024-02-21T03:48:55;9.60;;;4.00;;
81996;SDS011;71500;50.806;8.774;2024-02-21T03:51:26;7.90;;;4.00;;
81996;SDS011;71500;50.806;8.774;2024-02-21T03:53:57;9.90;;;4.40;;
81996;SDS011;71500;50.806;8.774;2024-02-21T03:56:29;10.20;;;4.00;;
81996;SDS011;71500;50.806;8.774;2024-02-21T03:59:00;7.10;;;4.30;;
81996;SDS011;71500;50.806;8.774;2024-02-21T04:01:31;7.90;;;3.60;;
81996;SDS011;71500;50.806;8.774;2024-02-21T04:04:03;5.60;;;4.20;;
81996;SDS011;71500;50.806;8.774;2024-02-21T04:06:35;9.30;;;3.90;;
81996;SDS011;71500;50.806;8.774;2024-02-21T04:09:06;6.70;;;3.60;;
81996;SDS011;71500;50.806;8.774;2024-02-21T04:11:38;6.10;;;3.50;;
81996;SDS011;71500;50.806;8.774;2024-02-21T04:14:09;9.70;;;4.50;;
81996;SDS011;71500;50.806;8.774;2024-02-21T04:16:41;7.80;;;4.10;;
81996;SDS011;71500;50.806;8.774;2024-02-21T04:19:12;9.30;;;3.90;;
81996;SDS011;71500;50.806;8.774;2024-02-21T04:21:44;9.30;;;5.10;;
81996;SDS011;71500;50.806;8.774;2024-02-21T04:24:15;7.40;;;3.90;;
81996;SDS011;71500;50.806;8.774;2024-02-21T04:26:46;8.50;;;3.60;;
81996;SDS011;71500;50.806;8.774;2024-02-21T04:29:17;7.70;;;3.80;;
81996;SDS011;71500;50.806;8.774;2024-02-21T04:31:49;9.70;;;4.20;;
81996;SDS011;71500;50.806;8.774;2024-02-21T04:34:20;8.30;;;4.20;;
81996;SDS011;71500;50.806;8.774;2024-02-21T04:36:52;6.20;;;3.70;;
81996;SDS011;71500;50.806;8.774;2024-02-21T04:39:23;8.40;;;4.20;;
81996;SDS011;71500;50.806;8.774;2024-02-21T04:41:54;6.80;;;3.80;;
81996;SDS011;71500;50.806;8.774;2024-02-21T04:44:26;9.00;;;4.10;;
81996;SDS011;71500;50.806;8.774;2024-02-21T04:46:58;6.50;;;3.40;;
81996;SDS011;71500;50.806;8.774;2024-02-21T04:49:29;6.20;;;3.60;;
81996;SDS011;71500;50.806;8.774;2024-02-21T04:52:01;7.80;;;4.10;;
81996;SDS011;71500;50.806;8.774;2024-02-21T04:54:32;6.50;;;3.80;;
81996;SDS011;71500;50.806;8.774;2024-02-21T04:57:05;7.90;;;4.40;;
81996;SDS011;71500;50.806;8.774;2024-02-21T04:59:38;7.30;;;3.80;;
81996;SDS011;71500;50.806;8.774;2024-02-21T05:02:10;10.60;;;4.60;;
81996;SDS011;71500;50.806;8.774;2024-02-21T05:04:43;8.00;;;4.30;;
81996;SDS011;71500;50.806;8.774;2024-02-21T05:07:15;7.70;;;3.70;;
81996;SDS011;71500;50.806;8.774;2024-02-21T05:09:48;9.30;;;3.80;;
81996;SDS011;71500;50.806;8.774;2024-02-21T05:12:19;7.20;;;4.20;;
81996;SDS011;71500;50.806;8.774;2024-02-21T05:14:50;6.20;;;3.60;;
81996;SDS011;71500;50.806;8.774;2024-02-21T05:17:21;7.40;;;4.10;;
81996;SDS011;71500;50.806;8.774;2024-02-21T05:19:53;8.30;;;3.90;;
81996;SDS011;71500;50.806;8.774;2024-02-21T05:22:24;7.80;;;4.30;;
81996;SDS011;71500;50.806;8.774;2024-02-21T05:24:55;7.20;;;3.90;;
81996;SDS011;71500;50.806;8.774;2024-02-21T05:27:27;7.90;;;4.20;;
81996;SDS011;71500;50.806;8.774;2024-02-21T05:29:59;8.60;;;4.00;;
81996;SDS011;71500;50.806;8.774;2024-02-21T05:32:30;6.40;;;3.80;;
81996;SDS011;71500;50.806;8.774;2024-02-21T05:35:01;8.40;;;3.60;;
81996;SDS011;71500;50.806;8.774;2024-02-21T05:37:33;8.40;;;4.40;;
81996;SDS011;71500;50.806;8.774;2024-02-21T05:40:06;9.60;;;4.40;;
81996;SDS011;71500;50.806;8.774;2024-02-21T05:42:39;6.40;;;3.90;;
81996;SDS011;71500;50.806;8.774;2024-02-21T05:45:11;6.70;;;3.70;;
81996;SDS011;71500;50.806;8.774;2024-02-21T05:47:44;9.10;;;3.70;;
81996;SDS011;71500;50.806;8.774;2024-02-21T05:50:15;6.40;;;3.60;;
81996;SDS011;71500;50.806;8.774;2024-02-21T05:52:47;8.80;;;3.70;;
81996;SDS011;71500;50.806;8.774;2024-02-21T05:55:20;7.20;;;3.50;;
81996;SDS011;71500;50.806;8.774;2024-02-21T05:57:54;7.10;;;4.40;;
81996;SDS011;71500;50.806;8.774;2024-02-21T06:00:25;6.50;;;4.30;;
81996;SDS011;71500;50.806;8.774;2024-02-21T06:02:57;5.90;;;3.50;;
81996;SDS011;71500;50.806;8.774;2024-02-21T06:05:29;8.20;;;3.90;;
81996;SDS011;71500;50.806;8.774;2024-02-21T06:08:00;9.50;;;3.60;;
81996;SDS011;71500;50.806;8.774;2024-02-21T06:10:32;6.90;;;3.60;;
81996;SDS011;71500;50.806;8.774;2024-02-21T06:13:04;5.00;;;3.30;;
81996;SDS011;71500;50.806;8.774;2024-02-21T06:15:35;6.60;;;3.70;;
81996;SDS011;71500;50.806;8.774;2024-02-21T06:18:06;7.10;;;4.00;;
81996;SDS011;71500;50.806;8.774;2024-02-21T06:20:38;6.60;;;3.30;;
81996;SDS011;71500;50.806;8.774;2024-02-21T06:23:10;7.50;;;3.30;;
81996;SDS011;71500;50.806;8.774;2024-02-21T06:25:42;5.50;;;3.70;;
81996;SDS011;71500;50.806;8.774;2024-02-21T06:28:13;8.70;;;4.00;;
81996;SDS011;71500;50.806;8.774;2024-02-21T06:30:45;7.20;;;2.90;;
81996;SDS011;71500;50.806;8.774;2024-02-21T06:33:16;4.90;;;3.20;;
81996;SDS011;71500;50.806;8.774;2024-02-21T06:35:52;6.40;;;3.30;;
81996;SDS011;71500;50.806;8.774;2024-02-21T06:38:23;6.10;;;3.60;;
81996;SDS011;71500;50.806;8.774;2024-02-21T06:40:55;7.00;;;3.60;;
81996;SDS011;71500;50.806;8.774;2024-02-21T06:43:29;6.60;;;3.60;;
81996;SDS011;71500;50.806;8.774;2024-02-21T06:46:00;8.90;;;4.00;;
81996;SDS011;71500;50.806;8.774;2024-02-21T06:48:32;6.80;;;3.90;;
81996;SDS011;71500;50.806;8.774;2024-02-21T06:51:04;8.50;;;3.40;;
81996;SDS011;71500;50.806;8.774;2024-02-21T06:53:35;7.40;;;3.50;;
81996;SDS011;71500;50.806;8.774;2024-02-21T06:56:07;6.20;;;3.50;;
81996;SDS011;71500;50.806;8.774;2024-02-21T06:58:38;6.60;;;3.80;;
81996;SDS011;71500;50.806;8.774;2024-02-21T07:01:10;7.00;;;3.10;;
81996;SDS011;71500;50.806;8.774;2024-02-21T07:03:41;7.40;;;3.40;;
81996;SDS011;71500;50.806;8.774;2024-02-21T07:06:12;7.00;;;2.90;;
81996;SDS011;71500;50.806;8.774;2024-02-21T07:08:44;9.30;;;3.90;;
81996;SDS011;71500;50.806;8.774;2024-02-21T07:11:15;8.00;;;3.80;;
81996;SDS011;71500;50.806;8.774;2024-02-21T07:13:47;6.10;;;3.40;;
81996;SDS011;71500;50.806;8.774;2024-02-21T07:16:18;9.40;;;3.90;;
81996;SDS011;71500;50.806;8.774;2024-02-21T07:18:50;6.30;;;3.00;;
81996;SDS011;71500;50.806;8.774;2024-02-21T07:21:21;6.30;;;3.70;;
81996;SDS011;71500;50.806;8.774;2024-02-21T07:23:52;4.90;;;2.90;;
81996;SDS011;71500;50.806;8.774;2024-02-21T07:26:23;5.90;;;3.20;;
81996;SDS011;71500;50.806;8.774;2024-02-21T07:28:55;6.60;;;3.70;;
81996;SDS011;71500;50.806;8.774;2024-02-21T07:31:26;9.30;;;3.40;;
81996;SDS011;71500;50.806;8.774;2024-02-21T07:33:58;9.30;;;4.30;;
81996;SDS011;71500;50.806;8.774;2024-02-21T07:36:29;8.40;;;3.60;;
81996;SDS011;71500;50.806;8.774;2024-02-21T07:39:01;8.30;;;3.70;;
81996;SDS011;71500;50.806;8.774;2024-02-21T07:41:33;7.30;;;3.80;;
81996;SDS011;71500;50.806;8.774;2024-02-21T07:44:04;7.40;;;3.30;;
81996;SDS011;71500;50.806;8.774;2024-02-21T07:46:35;8.50;;;3.80;;
81996;SDS011;71500;50.806;8.774;2024-02-21T07:49:07;8.20;;;3.40;;
81996;SDS011;71500;50.806;8.774;2024-02-21T07:51:39;6.90;;;3.40;;
81996;SDS011;71500;50.806;8.774;2024-02-21T07:54:10;7.20;;;3.30;;
81996;SDS011;71500;50.806;8.774;2024-02-21T07:56:45;7.90;;;3.40;;
81996;SDS011;71500;50.806;8.774;2024-02-21T07:59:17;7.00;;;3.10;;
81996;SDS011;71500;50.806;8.774;2024-02-21T08:01:48;7.10;;;3.50;;
81996;SDS011;71500;50.806;8.774;2024-02-21T08:04:19;7.10;;;3.40;;
81996;SDS011;71500;50.806;8.774;2024-02-21T08:06:52;8.20;;;3.40;;
81996;SDS011;71500;50.806;8.774;2024-02-21T08:09:24;7.20;;;3.20;;
81996;SDS011;71500;50.806;8.774;2024-02-21T08:11:55;5.90;;;3.20;;
81996;SDS011;71500;50.806;8.774;2024-02-21T08:14:27;6.90;;;3.50;;
81996;SDS011;71500;50.806;8.774;2024-02-21T08:16:58;5.00;;;3.10;;
81996;SDS011;71500;50.806;8.774;2024-02-21T08:19:30;5.40;;;2.70;;
81996;SDS011;71500;50.806;8.774;2024-02-21T08:22:02;6.70;;;3.00;;
81996;SDS011;71500;50.806;8.774;2024-02-21T08:24:34;5.40;;;3.00;;
81996;SDS011;71500;50.806;8.774;2024-02-21T08:27:06;6.10;;;2.80;;
81996;SDS011;71500;50.806;8.774;2024-02-21T08:29:38;6.60;;;3.60;;
81996;SDS011;71500;50.806;8.774;2024-02-21T08:32:09;7.00;;;3.90;;
81996;SDS011;71500;50.806;8.774;2024-02-21T08:34:40;9.30;;;3.80;;
81996;SDS011;71500;50.806;8.774;2024-02-21T08:37:12;5.80;;;3.20;;
81996;SDS011;71500;50.806;8.774;2024-02-21T08:39:43;9.00;;;3.80;;
81996;SDS011;71500;50.806;8.774;2024-02-21T08:42:16;6.50;;;3.90;;
81996;SDS011;71500;50.806;8.774;2024-02-21T08:44:48;9.00;;;3.20;;
81996;SDS011;71500;50.806;8.774;2024-02-21T08:47:19;6.20;;;3.70;;
81996;SDS011;71500;50.806;8.774;2024-02-21T08:49:50;7.40;;;3.50;;
81996;SDS011;71500;50.806;8.774;2024-02-21T08:52:22;5.70;;;3.50;;
81996;SDS011;71500;50.806;8.774;2024-02-21T08:54:54;6.90;;;3.40;;
81996;SDS011;71500;50.806;8.774;2024-02-21T08:57:25;6.20;;;3.10;;
81996;SDS011;71500;50.806;8.774;2024-02-21T08:59:57;7.80;;;3.90;;
81996;SDS011;71500;50.806;8.774;2024-02-21T09:02:29;7.80;;;3.20;;
81996;SDS011;71500;50.806;8.774;2024-02-21T09:05:00;8.00;;;3.40;;
81996;SDS011;71500;50.806;8.774;2024-02-21T09:07:33;7.30;;;4.00;;
81996;SDS011;71500;50.806;8.774;2024-02-21T09:10:06;7.60;;;3.20;;
81996;SDS011;71500;50.806;8.774;2024-02-21T09:12:38;5.70;;;3.40;;
81996;SDS011;71500;50.806;8.774;2024-02-21T09:15:10;6.40;;;3.60;;
81996;SDS011;71500;50.806;8.774;2024-02-21T09:17:41;8.60;;;3.70;;
81996;SDS011;71500;50.806;8.774;2024-02-21T09:20:13;5.00;;;3.40;;
81996;SDS011;71500;50.806;8.774;2024-02-21T09:22:45;7.20;;;3.10;;
81996;SDS011;71500;50.806;8.774;2024-02-21T09:25:17;7.00;;;3.60;;
81996;SDS011;71500;50.806;8.774;2024-02-21T09:27:48;7.70;;;3.50;;
81996;SDS011;71500;50.806;8.774;2024-02-21T09:30:20;8.30;;;3.90;;
81996;SDS011;71500;50.806;8.774;2024-02-21T09:32:52;6.40;;;3.30;;
81996;SDS011;71500;50.806;8.774;2024-02-21T09:35:23;8.20;;;4.00;;
81996;SDS011;71500;50.806;8.774;2024-02-21T09:37:56;7.40;;;3.80;;
81996;SDS011;71500;50.806;8.774;2024-02-21T09:40:28;9.30;;;4.20;;
81996;SDS011;71500;50.806;8.774;2024-02-21T09:43:02;7.90;;;3.60;;
81996;SDS011;71500;50.806;8.774;2024-02-21T09:45:35;5.80;;;3.40;;
81996;SDS011;71500;50.806;8.774;2024-02-21T09:48:14;8.50;;;3.90;;
81996;SDS011;71500;50.806;8.774;2024-02-21T09:50:55;7.70;;;3.70;;
81996;SDS011;71500;50.806;8.774;2024-02-21T09:53:29;6.90;;;3.70;;
81996;SDS011;71500;50.806;8.774;2024-02-21T09:56:02;5.50;;;3.70;;
81996;SDS011;71500;50.806;8.774;2024-02-21T09:58:41;7.10;;;3.70;;
81996;SDS011;71500;50.806;8.774;2024-02-21T10:01:13;6.90;;;3.10;;
81996;SDS011;71500;50.806;8.774;2024-02-21T10:04:02;7.60;;;3.20;;
81996;SDS011;71500;50.806;8.774;2024-02-21T10:06:35;6.20;;;3.20;;
81996;SDS011;71500;50.806;8.774;2024-02-21T10:09:08;5.00;;;3.30;;
81996;SDS011;71500;50.806;8.774;2024-02-21T10:11:49;7.40;;;3.70;;
81996;SDS011;71500;50.806;8.774;2024-02-21T10:14:21;10.10;;;4.30;;
81996;SDS011;71500;50.806;8.774;2024-02-21T10:16:57;6.90;;;3.40;;
81996;SDS011;71500;50.806;8.774;2024-02-21T10:19:29;8.40;;;4.00;;
81996;SDS011;71500;50.806;8.774;2024-02-21T10:22:02;8.10;;;3.70;;
81996;SDS011;71500;50.806;8.774;2024-02-21T10:24:36;7.90;;;4.10;;
81996;SDS011;71500;50.806;8.774;2024-02-21T10:27:10;6.40;;;3.30;;
81996;SDS011;71500;50.806;8.774;2024-02-21T10:29:42;6.80;;;3.30;;
81996;SDS011;71500;50.806;8.774;2024-02-21T10:32:18;6.30;;;3.50;;
81996;SDS011;71500;50.806;8.774;2024-02-21T10:35:00;7.40;;;3.90;;
81996;SDS011;71500;50.806;8.774;2024-02-21T10:37:33;5.90;;;4.00;;
81996;SDS011;71500;50.806;8.774;2024-02-21T10:40:06;6.30;;;3.80;;
81996;SDS011;71500;50.806;8.774;2024-02-21T10:42:38;7.00;;;4.00;;
81996;SDS011;71500;50.806;8.774;2024-02-21T10:47:44;6.90;;;3.40;;
81996;SDS011;71500;50.806;8.774;2024-02-21T10:50:24;7.60;;;3.30;;
81996;SDS011;71500;50.806;8.774;2024-02-21T10:53:00;5.40;;;3.80;;
81996;SDS011;71500;50.806;8.774;2024-02-21T10:55:41;7.00;;;3.50;;
81996;SDS011;71500;50.806;8.774;2024-02-21T10:58:20;7.10;;;3.80;;
81996;SDS011;71500;50.806;8.774;2024-02-21T11:00:54;7.60;;;3.80;;
81996;SDS011;71500;50.806;8.774;2024-02-21T11:03:26;5.80;;;4.00;;
81996;SDS011;71500;50.806;8.774;2024-02-21T11:05:58;7.80;;;3.70;;
81996;SDS011;71500;50.806;8.774;2024-02-21T11:08:31;10.10;;;4.90;;
81996;SDS011;71500;50.806;8.774;2024-02-21T11:11:03;7.90;;;4.00;;
81996;SDS011;71500;50.806;8.774;2024-02-21T11:13:40;9.00;;;3.80;;
81996;SDS011;71500;50.806;8.774;2024-02-21T11:16:21;7.10;;;3.70;;
81996;SDS011;71500;50.806;8.774;2024-02-21T11:18:53;6.10;;;3.60;;
81996;SDS011;71500;50.806;8.774;2024-02-21T11:21:36;6.50;;;3.60;;
81996;SDS011;71500;50.806;8.774;2024-02-21T11:24:08;6.70;;;4.10;;
81996;SDS011;71500;50.806;8.774;2024-02-21T11:26:39;5.80;;;4.00;;
81996;SDS011;71500;50.806;8.774;2024-02-21T11:29:12;7.40;;;3.40;;
81996;SDS011;71500;50.806;8.774;2024-02-21T11:31:52;7.10;;;3.40;;
81996;SDS011;71500;50.806;8.774;2024-02-21T11:34:24;6.00;;;3.60;;
81996;SDS011;71500;50.806;8.774;2024-02-21T11:36:56;6.50;;;3.70;;
81996;SDS011;71500;50.806;8.774;2024-02-21T11:39:27;7.30;;;3.70;;
81996;SDS011;71500;50.806;8.774;2024-02-21T11:42:03;4.90;;;3.40;;
81996;SDS011;71500;50.806;8.774;2024-02-21T11:44:36;6.20;;;3.50;;
81996;SDS011;71500;50.806;8.774;2024-02-21T11:47:08;6.00;;;3.10;;
81996;SDS011;71500;50.806;8.774;2024-02-21T11:49:43;7.40;;;3.70;;
81996;SDS011;71500;50.806;8.774;2024-02-21T11:52:15;9.20;;;4.20;;
81996;SDS011;71500;50.806;8.774;2024-02-21T11:54:49;6.30;;;3.50;;
81996;SDS011;71500;50.806;8.774;2024-02-21T11:57:21;8.10;;;4.50;;
81996;SDS011;71500;50.806;8.774;2024-02-21T11:59:52;8.50;;;3.80;;
81996;SDS011;71500;50.806;8.774;2024-02-21T12:02:28;6.20;;;3.40;;
81996;SDS011;71500;50.806;8.774;2024-02-21T12:04:59;8.40;;;3.70;;
81996;SDS011;71500;50.806;8.774;2024-02-21T12:07:32;5.80;;;3.10;;
81996;SDS011;71500;50.806;8.774;2024-02-21T12:10:05;7.10;;;4.20;;
81996;SDS011;71500;50.806;8.774;2024-02-21T12:12:39;4.70;;;2.90;;
81996;SDS011;71500;50.806;8.774;2024-02-21T12:15:11;7.30;;;3.80;;
81996;SDS011;71500;50.806;8.774;2024-02-21T12:17:42;7.40;;;4.20;;
81996;SDS011;71500;50.806;8.774;2024-02-21T12:20:14;6.50;;;3.40;;
81996;SDS011;71500;50.806;8.774;2024-02-21T12:22:48;7.80;;;3.80;;
81996;SDS011;71500;50.806;8.774;2024-02-21T12:25:22;5.70;;;3.20;;
81996;SDS011;71500;50.806;8.774;2024-02-21T12:27:55;5.60;;;2.80;;
81996;SDS011;71500;50.806;8.774;2024-02-21T12:30:28;5.20;;;3.30;;
81996;SDS011;71500;50.806;8.774;2024-02-21T12:33:02;5.40;;;3.00;;
81996;SDS011;71500;50.806;8.774;2024-02-21T12:35:33;5.40;;;3.30;;
81996;SDS011;71500;50.806;8.774;2024-02-21T12:38:05;6.00;;;3.20;;
81996;SDS011;71500;50.806;8.774;2024-02-21T12:40:36;5.60;;;3.20;;
81996;SDS011;71500;50.806;8.774;2024-02-21T12:43:07;5.60;;;3.20;;
81996;SDS011;71500;50.806;8.774;2024-02-21T12:45:39;6.70;;;3.20;;
81996;SDS011;71500;50.806;8.774;2024-02-21T12:48:11;7.70;;;3.40;;
81996;SDS011;71500;50.806;8.774;2024-02-21T12:50:44;7.60;;;3.70;;
81996;SDS011;71500;50.806;8.774;2024-02-21T12:53:20;8.10;;;3.60;;
81996;SDS011;71500;50.806;8.774;2024-02-21T12:56:01;7.30;;;3.30;;
81996;SDS011;71500;50.806;8.774;2024-02-21T12:58:34;5.60;;;3.10;;
81996;SDS011;71500;50.806;8.774;2024-02-21T13:01:05;5.40;;;3.30;;
81996;SDS011;71500;50.806;8.774;2024-02-21T13:03:37;6.20;;;3.30;;
81996;SDS011;71500;50.806;8.774;2024-02-21T13:06:08;5.70;;;3.10;;
81996;SDS011;71500;50.806;8.774;2024-02-21T13:08:40;6.40;;;3.30;;
81996;SDS011;71500;50.806;8.774;2024-02-21T13:11:13;7.90;;;3.50;;
81996;SDS011;71500;50.806;8.774;2024-02-21T13:13:45;6.40;;;3.00;;
81996;SDS011;71500;50.806;8.774;2024-02-21T13:16:17;5.10;;;2.90;;
81996;SDS011;71500;50.806;8.774;2024-02-21T13:18:48;6.70;;;3.70;;
81996;SDS011;71500;50.806;8.774;2024-02-21T13:21:20;6.20;;;2.80;;
81996;SDS011;71500;50.806;8.774;2024-02-21T13:23:51;5.00;;;3.40;;
81996;SDS011;71500;50.806;8.774;2024-02-21T13:26:23;5.50;;;3.00;;
81996;SDS011;71500;50.806;8.774;2024-02-21T13:28:54;4.70;;;2.60;;
81996;SDS011;71500;50.806;8.774;2024-02-21T13:31:25;6.90;;;4.00;;
81996;SDS011;71500;50.806;8.774;2024-02-21T13:33:57;7.20;;;3.40;;
81996;SDS011;71500;50.806;8.774;2024-02-21T13:36:28;5.90;;;2.90;;
81996;SDS011;71500;50.806;8.774;2024-02-21T13:39:00;8.00;;;4.00;;
81996;SDS011;71500;50.806;8.774;2024-02-21T13:44:03;7.40;;;3.40;;
81996;SDS011;71500;50.806;8.774;2024-02-21T13:46:34;5.60;;;3.20;;
81996;SDS011;71500;50.806;8.774;2024-02-21T13:49:06;7.60;;;3.30;;
81996;SDS011;71500;50.806;8.774;2024-02-21T13:51:38;6.20;;;3.10;;
81996;SDS011;71500;50.806;8.774;2024-02-21T13:54:11;7.20;;;3.50;;
81996;SDS011;71500;50.806;8.774;2024-02-21T13:56:45;5.00;;;3.30;;
81996;SDS011;71500;50.806;8.774;2024-02-21T13:59:17;6.50;;;3.80;;
81996;SDS011;71500;50.806;8.774;2024-02-21T14:01:48;11.70;;;5.60;;
81996;SDS011;71500;50.806;8.774;2024-02-21T14:04:20;8.50;;;4.40;;
81996;SDS011;71500;50.806;8.774;2024-02-21T14:06:51;7.90;;;3.70;;
81996;SDS011;71500;50.806;8.774;2024-02-21T14:09:23;9.60;;;3.10;;
81996;SDS011;71500;50.806;8.774;2024-02-21T14:11:54;4.70;;;3.20;;
81996;SDS011;71500;50.806;8.774;2024-02-21T14:14:26;4.50;;;3.10;;
81996;SDS011;71500;50.806;8.774;2024-02-21T14:16:59;5.70;;;2.90;;
81996;SDS011;71500;50.806;8.774;2024-02-21T14:19:31;6.10;;;3.40;;
81996;SDS011;71500;50.806;8.774;2024-02-21T14:22:03;6.70;;;3.00;;
81996;SDS011;71500;50.806;8.774;2024-02-21T14:24:34;6.40;;;3.50;;
81996;SDS011;71500;50.806;8.774;2024-02-21T14:27:05;7.70;;;3.50;;
81996;SDS011;71500;50.806;8.774;2024-02-21T14:29:37;6.00;;;2.90;;
81996;SDS011;71500;50.806;8.774;2024-02-21T14:32:09;7.30;;;3.50;;
81996;SDS011;71500;50.806;8.774;2024-02-21T14:34:42;5.70;;;3.70;;
81996;SDS011;71500;50.806;8.774;2024-02-21T14:37:14;7.60;;;3.80;;
81996;SDS011;71500;50.806;8.774;2024-02-21T14:39:45;6.80;;;4.40;;
81996;SDS011;71500;50.806;8.774;2024-02-21T14:42:16;6.90;;;3.80;;
81996;SDS011;71500;50.806;8.774;2024-02-21T14:44:48;8.70;;;4.10;;
81996;SDS011;71500;50.806;8.774;2024-02-21T14:47:19;5.90;;;2.80;;
81996;SDS011;71500;50.806;8.774;2024-02-21T14:49:51;9.30;;;5.50;;
81996;SDS011;71500;50.806;8.774;2024-02-21T14:52:22;9.30;;;5.70;;
81996;SDS011;71500;50.806;8.774;2024-02-21T14:54:56;6.60;;;3.80;;
81996;SDS011;71500;50.806;8.774;2024-02-21T14:57:28;5.60;;;3.40;;
81996;SDS011;71500;50.806;8.774;2024-02-21T15:00:00;3.90;;;3.00;;
81996;SDS011;71500;50.806;8.774;2024-02-21T15:02:36;5.00;;;3.00;;
81996;SDS011;71500;50.806;8.774;2024-02-21T15:05:08;6.80;;;2.70;;
81996;SDS011;71500;50.806;8.774;2024-02-21T15:07:41;5.00;;;2.70;;
81996;SDS011;71500;50.806;8.774;2024-02-21T15:10:13;4.60;;;2.70;;
81996;SDS011;71500;50.806;8.774;2024-02-21T15:12:44;5.60;;;2.90;;
81996;SDS011;71500;50.806;8.774;2024-02-21T15:15:16;4.70;;;2.70;;
81996;SDS011;71500;50.806;8.774;2024-02-21T15:17:47;5.20;;;2.90;;
81996;SDS011;71500;50.806;8.774;2024-02-21T15:20:19;6.60;;;2.90;;
81996;SDS011;71500;50.806;8.774;2024-02-21T15:22:51;5.80;;;2.70;;
81996;SDS011;71500;50.806;8.774;2024-02-21T15:25:23;3.90;;;2.80;;